<?xml version="1.0" encoding="UTF-8" standalone="no" ?>
<gpx xmlns="http://www.topografix.com/GPX/1/1" xmlns:xsi="http://www.w3.org/2001/XMLSchema-instance" xsi:schemaLocation="http://www.topografix.com/GPX/1/1 http://www.topografix.com/GPX/1/1/gpx.xsd" version="1.1" creator="VisuGPX - https://www.visugpx.com">
  <metadata>
    <name>Vacances 2021</name>
  </metadata>
  <trk>
    <name><![CDATA[Journal actif: 2021-07-28 10:25]]></name>
    <trkseg>
      <trkpt lat="49.41754" lon="2.82557">
        <ele>45.32</ele>
        <time>2021-07-28T12:25:32Z</time>
      </trkpt>
      <trkpt lat="49.41754" lon="2.82527">
        <ele>44.84</ele>
        <time>2021-07-28T12:26:15Z</time>
      </trkpt>
      <trkpt lat="49.41777" lon="2.8252">
        <ele>43.88</ele>
        <time>2021-07-28T12:26:21Z</time>
      </trkpt>
      <trkpt lat="49.4178" lon="2.82527">
        <ele>43.88</ele>
        <time>2021-07-28T12:26:22Z</time>
      </trkpt>
      <trkpt lat="49.41782" lon="2.82533">
        <ele>43.88</ele>
        <time>2021-07-28T12:26:23Z</time>
      </trkpt>
      <trkpt lat="49.41785" lon="2.82539">
        <ele>44.36</ele>
        <time>2021-07-28T12:26:24Z</time>
      </trkpt>
      <trkpt lat="49.41787" lon="2.82545">
        <ele>44.84</ele>
        <time>2021-07-28T12:26:25Z</time>
      </trkpt>
      <trkpt lat="49.41789" lon="2.8255">
        <ele>44.36</ele>
        <time>2021-07-28T12:26:26Z</time>
      </trkpt>
      <trkpt lat="49.41791" lon="2.82555">
        <ele>44.36</ele>
        <time>2021-07-28T12:26:27Z</time>
      </trkpt>
      <trkpt lat="49.41795" lon="2.82554">
        <ele>44.36</ele>
        <time>2021-07-28T12:26:28Z</time>
      </trkpt>
      <trkpt lat="49.41797" lon="2.82551">
        <ele>43.88</ele>
        <time>2021-07-28T12:26:29Z</time>
      </trkpt>
      <trkpt lat="49.418" lon="2.82548">
        <ele>43.88</ele>
        <time>2021-07-28T12:26:30Z</time>
      </trkpt>
      <trkpt lat="49.41803" lon="2.82545">
        <ele>43.4</ele>
        <time>2021-07-28T12:26:31Z</time>
      </trkpt>
      <trkpt lat="49.41807" lon="2.82541">
        <ele>42.92</ele>
        <time>2021-07-28T12:26:32Z</time>
      </trkpt>
      <trkpt lat="49.41869" lon="2.82474">
        <ele>39.55</ele>
        <time>2021-07-28T12:26:46Z</time>
      </trkpt>
      <trkpt lat="49.41927" lon="2.82411">
        <ele>39.07</ele>
        <time>2021-07-28T12:26:59Z</time>
      </trkpt>
      <trkpt lat="49.41939" lon="2.82398">
        <ele>39.55</ele>
        <time>2021-07-28T12:27:11Z</time>
      </trkpt>
      <trkpt lat="49.41953" lon="2.82382">
        <ele>40.03</ele>
        <time>2021-07-28T12:27:42Z</time>
      </trkpt>
      <trkpt lat="49.42013" lon="2.82318">
        <ele>42.44</ele>
        <time>2021-07-28T12:27:53Z</time>
      </trkpt>
      <trkpt lat="49.42038" lon="2.8229">
        <ele>41.47</ele>
        <time>2021-07-28T12:27:59Z</time>
      </trkpt>
      <trkpt lat="49.42046" lon="2.8228">
        <ele>40.99</ele>
        <time>2021-07-28T12:28:00Z</time>
      </trkpt>
      <trkpt lat="49.42046" lon="2.8228">
        <ele>40.99</ele>
        <time>2021-07-28T12:28:01Z</time>
      </trkpt>
      <trkpt lat="49.42047" lon="2.82274">
        <ele>40.51</ele>
        <time>2021-07-28T12:28:02Z</time>
      </trkpt>
      <trkpt lat="49.42047" lon="2.82274">
        <ele>40.51</ele>
        <time>2021-07-28T12:28:03Z</time>
      </trkpt>
      <trkpt lat="49.42044" lon="2.82263">
        <ele>40.51</ele>
        <time>2021-07-28T12:28:04Z</time>
      </trkpt>
      <trkpt lat="49.42041" lon="2.82255">
        <ele>40.03</ele>
        <time>2021-07-28T12:28:05Z</time>
      </trkpt>
      <trkpt lat="49.42037" lon="2.82246">
        <ele>40.03</ele>
        <time>2021-07-28T12:28:06Z</time>
      </trkpt>
      <trkpt lat="49.41969" lon="2.8208">
        <ele>39.07</ele>
        <time>2021-07-28T12:28:19Z</time>
      </trkpt>
      <trkpt lat="49.41952" lon="2.82029">
        <ele>38.59</ele>
        <time>2021-07-28T12:28:26Z</time>
      </trkpt>
      <trkpt lat="49.41951" lon="2.82025">
        <ele>38.59</ele>
        <time>2021-07-28T12:28:27Z</time>
      </trkpt>
      <trkpt lat="49.41951" lon="2.82025">
        <ele>38.59</ele>
        <time>2021-07-28T12:28:28Z</time>
      </trkpt>
      <trkpt lat="49.41955" lon="2.82007">
        <ele>38.59</ele>
        <time>2021-07-28T12:28:29Z</time>
      </trkpt>
      <trkpt lat="49.41952" lon="2.81998">
        <ele>38.11</ele>
        <time>2021-07-28T12:28:30Z</time>
      </trkpt>
      <trkpt lat="49.41951" lon="2.81997">
        <ele>38.11</ele>
        <time>2021-07-28T12:28:31Z</time>
      </trkpt>
      <trkpt lat="49.41944" lon="2.81998">
        <ele>37.63</ele>
        <time>2021-07-28T12:28:32Z</time>
      </trkpt>
      <trkpt lat="49.41942" lon="2.81999">
        <ele>37.15</ele>
        <time>2021-07-28T12:28:33Z</time>
      </trkpt>
      <trkpt lat="49.41942" lon="2.82001">
        <ele>37.15</ele>
        <time>2021-07-28T12:28:34Z</time>
      </trkpt>
      <trkpt lat="49.41941" lon="2.82008">
        <ele>36.67</ele>
        <time>2021-07-28T12:28:35Z</time>
      </trkpt>
      <trkpt lat="49.4194" lon="2.82014">
        <ele>36.67</ele>
        <time>2021-07-28T12:28:36Z</time>
      </trkpt>
      <trkpt lat="49.41941" lon="2.82017">
        <ele>36.19</ele>
        <time>2021-07-28T12:28:37Z</time>
      </trkpt>
      <trkpt lat="49.41946" lon="2.82021">
        <ele>35.71</ele>
        <time>2021-07-28T12:28:38Z</time>
      </trkpt>
      <trkpt lat="49.41955" lon="2.82037">
        <ele>35.71</ele>
        <time>2021-07-28T12:28:40Z</time>
      </trkpt>
      <trkpt lat="49.41957" lon="2.82044">
        <ele>35.23</ele>
        <time>2021-07-28T12:28:41Z</time>
      </trkpt>
      <trkpt lat="49.4196" lon="2.82052">
        <ele>34.74</ele>
        <time>2021-07-28T12:28:42Z</time>
      </trkpt>
      <trkpt lat="49.41966" lon="2.82072">
        <ele>35.23</ele>
        <time>2021-07-28T12:28:44Z</time>
      </trkpt>
      <trkpt lat="49.41969" lon="2.82082">
        <ele>35.23</ele>
        <time>2021-07-28T12:28:45Z</time>
      </trkpt>
      <trkpt lat="49.42014" lon="2.82195">
        <ele>37.63</ele>
        <time>2021-07-28T12:28:57Z</time>
      </trkpt>
      <trkpt lat="49.42024" lon="2.82213">
        <ele>39.55</ele>
        <time>2021-07-28T12:29:10Z</time>
      </trkpt>
      <trkpt lat="49.4203" lon="2.82225">
        <ele>39.55</ele>
        <time>2021-07-28T12:29:34Z</time>
      </trkpt>
      <trkpt lat="49.4203" lon="2.82225">
        <ele>40.03</ele>
        <time>2021-07-28T12:30:49Z</time>
      </trkpt>
      <trkpt lat="49.42035" lon="2.8224">
        <ele>40.51</ele>
        <time>2021-07-28T12:31:05Z</time>
      </trkpt>
      <trkpt lat="49.42035" lon="2.8224">
        <ele>40.51</ele>
        <time>2021-07-28T12:32:20Z</time>
      </trkpt>
      <trkpt lat="49.42041" lon="2.82255">
        <ele>40.51</ele>
        <time>2021-07-28T12:33:46Z</time>
      </trkpt>
      <trkpt lat="49.42041" lon="2.82255">
        <ele>40.51</ele>
        <time>2021-07-28T12:34:01Z</time>
      </trkpt>
      <trkpt lat="49.42041" lon="2.82255">
        <ele>40.51</ele>
        <time>2021-07-28T12:35:09Z</time>
      </trkpt>
      <trkpt lat="49.42047" lon="2.82271">
        <ele>40.51</ele>
        <time>2021-07-28T12:35:12Z</time>
      </trkpt>
      <trkpt lat="49.42047" lon="2.82271">
        <ele>40.51</ele>
        <time>2021-07-28T12:35:13Z</time>
      </trkpt>
      <trkpt lat="49.42047" lon="2.82275">
        <ele>40.99</ele>
        <time>2021-07-28T12:35:14Z</time>
      </trkpt>
      <trkpt lat="49.42046" lon="2.82278">
        <ele>40.99</ele>
        <time>2021-07-28T12:35:15Z</time>
      </trkpt>
      <trkpt lat="49.42046" lon="2.8228">
        <ele>40.99</ele>
        <time>2021-07-28T12:35:16Z</time>
      </trkpt>
      <trkpt lat="49.42045" lon="2.82283">
        <ele>40.99</ele>
        <time>2021-07-28T12:35:17Z</time>
      </trkpt>
      <trkpt lat="49.42043" lon="2.82284">
        <ele>40.99</ele>
        <time>2021-07-28T12:35:18Z</time>
      </trkpt>
      <trkpt lat="49.42042" lon="2.82286">
        <ele>41.47</ele>
        <time>2021-07-28T12:35:19Z</time>
      </trkpt>
      <trkpt lat="49.42042" lon="2.82286">
        <ele>40.99</ele>
        <time>2021-07-28T12:35:33Z</time>
      </trkpt>
      <trkpt lat="49.42036" lon="2.82293">
        <ele>41.47</ele>
        <time>2021-07-28T12:35:58Z</time>
      </trkpt>
      <trkpt lat="49.42029" lon="2.823">
        <ele>41.95</ele>
        <time>2021-07-28T12:36:24Z</time>
      </trkpt>
      <trkpt lat="49.42029" lon="2.823">
        <ele>41.95</ele>
        <time>2021-07-28T12:37:12Z</time>
      </trkpt>
      <trkpt lat="49.42022" lon="2.82308">
        <ele>42.44</ele>
        <time>2021-07-28T12:37:47Z</time>
      </trkpt>
      <trkpt lat="49.42013" lon="2.82318">
        <ele>42.44</ele>
        <time>2021-07-28T12:38:00Z</time>
      </trkpt>
      <trkpt lat="49.42012" lon="2.82319">
        <ele>42.44</ele>
        <time>2021-07-28T12:38:18Z</time>
      </trkpt>
      <trkpt lat="49.42007" lon="2.82325">
        <ele>42.44</ele>
        <time>2021-07-28T12:38:41Z</time>
      </trkpt>
      <trkpt lat="49.42" lon="2.82332">
        <ele>41.95</ele>
        <time>2021-07-28T12:39:16Z</time>
      </trkpt>
      <trkpt lat="49.41984" lon="2.8235">
        <ele>41.47</ele>
        <time>2021-07-28T12:39:29Z</time>
      </trkpt>
      <trkpt lat="49.41955" lon="2.82379">
        <ele>40.03</ele>
        <time>2021-07-28T12:39:39Z</time>
      </trkpt>
      <trkpt lat="49.4191" lon="2.82431">
        <ele>38.59</ele>
        <time>2021-07-28T12:39:50Z</time>
      </trkpt>
      <trkpt lat="49.41888" lon="2.82454">
        <ele>38.59</ele>
        <time>2021-07-28T12:40:29Z</time>
      </trkpt>
      <trkpt lat="49.41829" lon="2.82518">
        <ele>41.47</ele>
        <time>2021-07-28T12:40:39Z</time>
      </trkpt>
      <trkpt lat="49.41807" lon="2.82541">
        <ele>42.44</ele>
        <time>2021-07-28T12:40:46Z</time>
      </trkpt>
      <trkpt lat="49.4179" lon="2.82551">
        <ele>42.92</ele>
        <time>2021-07-28T12:41:06Z</time>
      </trkpt>
      <trkpt lat="49.41788" lon="2.82547">
        <ele>42.92</ele>
        <time>2021-07-28T12:41:07Z</time>
      </trkpt>
      <trkpt lat="49.41786" lon="2.82542">
        <ele>42.92</ele>
        <time>2021-07-28T12:41:08Z</time>
      </trkpt>
      <trkpt lat="49.41784" lon="2.82537">
        <ele>42.92</ele>
        <time>2021-07-28T12:41:09Z</time>
      </trkpt>
      <trkpt lat="49.41784" lon="2.82537">
        <ele>42.92</ele>
        <time>2021-07-28T12:41:10Z</time>
      </trkpt>
      <trkpt lat="49.41775" lon="2.82519">
        <ele>43.88</ele>
        <time>2021-07-28T12:41:14Z</time>
      </trkpt>
      <trkpt lat="49.41769" lon="2.82516">
        <ele>43.88</ele>
        <time>2021-07-28T12:41:15Z</time>
      </trkpt>
      <trkpt lat="49.41769" lon="2.82516">
        <ele>44.36</ele>
        <time>2021-07-28T12:41:16Z</time>
      </trkpt>
      <trkpt lat="49.41765" lon="2.82518">
        <ele>44.84</ele>
        <time>2021-07-28T12:41:17Z</time>
      </trkpt>
      <trkpt lat="49.41761" lon="2.8252">
        <ele>44.84</ele>
        <time>2021-07-28T12:41:18Z</time>
      </trkpt>
      <trkpt lat="49.41757" lon="2.82522">
        <ele>44.84</ele>
        <time>2021-07-28T12:41:19Z</time>
      </trkpt>
      <trkpt lat="49.41754" lon="2.82527">
        <ele>44.84</ele>
        <time>2021-07-28T12:41:20Z</time>
      </trkpt>
      <trkpt lat="49.41751" lon="2.82531">
        <ele>44.84</ele>
        <time>2021-07-28T12:41:21Z</time>
      </trkpt>
      <trkpt lat="49.41751" lon="2.82538">
        <ele>44.84</ele>
        <time>2021-07-28T12:41:22Z</time>
      </trkpt>
      <trkpt lat="49.41751" lon="2.82544">
        <ele>44.84</ele>
        <time>2021-07-28T12:41:23Z</time>
      </trkpt>
      <trkpt lat="49.41752" lon="2.82551">
        <ele>44.84</ele>
        <time>2021-07-28T12:41:24Z</time>
      </trkpt>
      <trkpt lat="49.41756" lon="2.82564">
        <ele>44.84</ele>
        <time>2021-07-28T12:41:25Z</time>
      </trkpt>
      <trkpt lat="49.41756" lon="2.82564">
        <ele>44.84</ele>
        <time>2021-07-28T12:41:26Z</time>
      </trkpt>
      <trkpt lat="49.41758" lon="2.82571">
        <ele>45.32</ele>
        <time>2021-07-28T12:41:27Z</time>
      </trkpt>
      <trkpt lat="49.4176" lon="2.82578">
        <ele>44.84</ele>
        <time>2021-07-28T12:41:28Z</time>
      </trkpt>
      <trkpt lat="49.41762" lon="2.82584">
        <ele>44.84</ele>
        <time>2021-07-28T12:41:29Z</time>
      </trkpt>
      <trkpt lat="49.41762" lon="2.8259">
        <ele>44.84</ele>
        <time>2021-07-28T12:41:30Z</time>
      </trkpt>
      <trkpt lat="49.41762" lon="2.82594">
        <ele>44.84</ele>
        <time>2021-07-28T12:41:31Z</time>
      </trkpt>
      <trkpt lat="49.41762" lon="2.82596">
        <ele>44.84</ele>
        <time>2021-07-28T12:41:32Z</time>
      </trkpt>
      <trkpt lat="49.41762" lon="2.82599">
        <ele>44.36</ele>
        <time>2021-07-28T12:41:33Z</time>
      </trkpt>
      <trkpt lat="49.41761" lon="2.82601">
        <ele>44.36</ele>
        <time>2021-07-28T12:41:34Z</time>
      </trkpt>
      <trkpt lat="49.41758" lon="2.82604">
        <ele>43.4</ele>
        <time>2021-07-28T12:41:35Z</time>
      </trkpt>
      <trkpt lat="49.41755" lon="2.82607">
        <ele>42.92</ele>
        <time>2021-07-28T12:41:36Z</time>
      </trkpt>
      <trkpt lat="49.41752" lon="2.8261">
        <ele>42.92</ele>
        <time>2021-07-28T12:41:37Z</time>
      </trkpt>
      <trkpt lat="49.41748" lon="2.82614">
        <ele>42.92</ele>
        <time>2021-07-28T12:41:38Z</time>
      </trkpt>
      <trkpt lat="49.41729" lon="2.82628">
        <ele>42.92</ele>
        <time>2021-07-28T12:41:46Z</time>
      </trkpt>
      <trkpt lat="49.41708" lon="2.82642">
        <ele>42.44</ele>
        <time>2021-07-28T12:42:26Z</time>
      </trkpt>
      <trkpt lat="49.41695" lon="2.82654">
        <ele>41.95</ele>
        <time>2021-07-28T12:42:35Z</time>
      </trkpt>
      <trkpt lat="49.41681" lon="2.8267">
        <ele>41.47</ele>
        <time>2021-07-28T12:42:38Z</time>
      </trkpt>
      <trkpt lat="49.41681" lon="2.8267">
        <ele>41.47</ele>
        <time>2021-07-28T12:42:39Z</time>
      </trkpt>
      <trkpt lat="49.41636" lon="2.82711">
        <ele>40.51</ele>
        <time>2021-07-28T12:42:52Z</time>
      </trkpt>
      <trkpt lat="49.41596" lon="2.82748">
        <ele>40.03</ele>
        <time>2021-07-28T12:43:04Z</time>
      </trkpt>
      <trkpt lat="49.41583" lon="2.82759">
        <ele>40.03</ele>
        <time>2021-07-28T12:43:07Z</time>
      </trkpt>
      <trkpt lat="49.41545" lon="2.82794">
        <ele>40.51</ele>
        <time>2021-07-28T12:43:19Z</time>
      </trkpt>
      <trkpt lat="49.41512" lon="2.82828">
        <ele>37.63</ele>
        <time>2021-07-28T12:43:28Z</time>
      </trkpt>
      <trkpt lat="49.41482" lon="2.8286">
        <ele>38.11</ele>
        <time>2021-07-28T12:43:36Z</time>
      </trkpt>
      <trkpt lat="49.41481" lon="2.82869">
        <ele>38.59</ele>
        <time>2021-07-28T12:43:37Z</time>
      </trkpt>
      <trkpt lat="49.41481" lon="2.82869">
        <ele>38.59</ele>
        <time>2021-07-28T12:43:38Z</time>
      </trkpt>
      <trkpt lat="49.41485" lon="2.82876">
        <ele>39.07</ele>
        <time>2021-07-28T12:43:39Z</time>
      </trkpt>
      <trkpt lat="49.41485" lon="2.82876">
        <ele>39.55</ele>
        <time>2021-07-28T12:43:40Z</time>
      </trkpt>
      <trkpt lat="49.41531" lon="2.82964">
        <ele>43.4</ele>
        <time>2021-07-28T12:43:55Z</time>
      </trkpt>
      <trkpt lat="49.41554" lon="2.83005">
        <ele>43.88</ele>
        <time>2021-07-28T12:44:02Z</time>
      </trkpt>
      <trkpt lat="49.41561" lon="2.83011">
        <ele>43.4</ele>
        <time>2021-07-28T12:44:03Z</time>
      </trkpt>
      <trkpt lat="49.41561" lon="2.83011">
        <ele>43.4</ele>
        <time>2021-07-28T12:44:04Z</time>
      </trkpt>
      <trkpt lat="49.41565" lon="2.83014">
        <ele>43.4</ele>
        <time>2021-07-28T12:44:05Z</time>
      </trkpt>
      <trkpt lat="49.41568" lon="2.83017">
        <ele>43.4</ele>
        <time>2021-07-28T12:44:06Z</time>
      </trkpt>
      <trkpt lat="49.4159" lon="2.83032">
        <ele>44.84</ele>
        <time>2021-07-28T12:44:18Z</time>
      </trkpt>
      <trkpt lat="49.41598" lon="2.83036">
        <ele>45.32</ele>
        <time>2021-07-28T12:44:22Z</time>
      </trkpt>
      <trkpt lat="49.4161" lon="2.83043">
        <ele>45.8</ele>
        <time>2021-07-28T12:44:24Z</time>
      </trkpt>
      <trkpt lat="49.4161" lon="2.83043">
        <ele>45.8</ele>
        <time>2021-07-28T12:44:25Z</time>
      </trkpt>
      <trkpt lat="49.41664" lon="2.83073">
        <ele>45.8</ele>
        <time>2021-07-28T12:44:35Z</time>
      </trkpt>
      <trkpt lat="49.41706" lon="2.83105">
        <ele>46.76</ele>
        <time>2021-07-28T12:44:47Z</time>
      </trkpt>
      <trkpt lat="49.4171" lon="2.83104">
        <ele>47.24</ele>
        <time>2021-07-28T12:44:48Z</time>
      </trkpt>
      <trkpt lat="49.41714" lon="2.83104">
        <ele>47.24</ele>
        <time>2021-07-28T12:44:49Z</time>
      </trkpt>
      <trkpt lat="49.41718" lon="2.83103">
        <ele>47.24</ele>
        <time>2021-07-28T12:44:50Z</time>
      </trkpt>
      <trkpt lat="49.41722" lon="2.83102">
        <ele>47.24</ele>
        <time>2021-07-28T12:44:51Z</time>
      </trkpt>
      <trkpt lat="49.41727" lon="2.83101">
        <ele>47.24</ele>
        <time>2021-07-28T12:44:52Z</time>
      </trkpt>
      <trkpt lat="49.41769" lon="2.83077">
        <ele>45.8</ele>
        <time>2021-07-28T12:45:08Z</time>
      </trkpt>
    </trkseg>
  </trk>
</gpx>